Time;durP1;ratioP1;P1;durP2;ratioP2;P2;SDS_P1;SDS_P2;PMS_P1;PMS_P2;Temp;Humidity;BMP_temperature;BMP_pressure;BME280_temperature;BME280_humidity;BME280_pressure;Samples;Min_cycle;Max_cycle;Signal;HPM_P1;HPM_P2
2024/04/05 00:02:18;;;;;;;;;;;12.80;35.30;14.50;98322.00;;;;5057496;28;1637;-90
2024/04/05 00:04:44;;;;;;;;;;;12.90;35.40;14.50;98284.00;;;;5057470;28;1648;-90
2024/04/05 00:07:11;;;;;;;;;;;12.80;35.30;14.50;98341.00;;;;5054250;28;1659;-89
2024/04/05 00:09:39;;;;;;;;;;;12.80;35.30;14.50;98306.00;;;;5056857;28;1906;-89
2024/04/05 00:12:07;;;;;;;;;;;12.80;35.30;14.50;98348.00;;;;5057563;28;1607;-89
2024/04/05 00:14:34;;;;;;;;;;;12.80;35.30;14.40;98355.00;;;;5057301;28;1694;-90
2024/04/05 00:17:01;;;;;;;;;;;12.80;35.30;14.50;98368.00;;;;5057050;28;1662;-90
2024/04/05 00:19:27;;;;;;;;;;;12.80;35.30;14.50;98294.00;;;;5056848;28;1519;-89
2024/04/05 00:21:54;;;;;;;;;;;12.80;35.90;14.50;98427.00;;;;5056961;28;1623;-88
2024/04/05 00:24:20;;;;;;;;;;;12.80;35.30;14.30;98343.00;;;;5056952;28;1577;-90
2024/04/05 00:26:47;;;;;;;;;;;12.80;35.30;14.50;98317.00;;;;5054184;28;1713;-89
2024/04/05 00:29:13;;;;;;;;;;;12.80;35.30;14.50;98317.00;;;;5056424;28;1906;-89
2024/04/05 00:31:42;;;;;;;;;;;12.80;35.30;14.30;98403.00;;;;5057129;28;1558;-90
2024/04/05 00:34:08;;;;;;;;;;;12.80;35.40;14.50;98345.00;;;;5056797;28;1519;-90
2024/04/05 00:36:35;;;;;;;;;;;12.80;35.20;14.50;98373.00;;;;5056660;28;1434;-90
2024/04/05 00:39:01;;;;;;;;;;;12.80;35.40;14.50;98348.00;;;;5036544;28;1558;-89
2024/04/05 00:41:28;;;;;;;;;;;12.80;35.30;14.50;98317.00;;;;5036863;28;1736;-89
2024/04/05 00:43:54;;;;;;;;;;;12.80;35.30;14.50;98361.00;;;;5054510;28;1793;-90
2024/04/05 00:46:21;;;;;;;;;;;12.80;35.40;14.50;98390.00;;;;5037996;28;1588;-89
2024/04/05 00:48:49;;;;;;;;;;;12.80;35.40;14.50;98376.00;;;;5036568;28;1910;-89
2024/04/05 00:51:16;;;;;;;;;;;12.80;35.50;14.50;98310.00;;;;5039638;28;1638;-89
2024/04/05 00:53:42;;;;;;;;;;;12.80;35.30;14.50;98305.00;;;;5057186;28;1725;-90
2024/04/05 00:56:09;;;;;;;;;;;12.80;35.30;14.50;98344.00;;;;5057181;28;1654;-89
2024/04/05 00:58:35;;;;;;;;;;;12.80;35.40;14.50;98399.00;;;;5061158;28;1744;-89
2024/04/05 01:01:02;;;;;;;;;;;12.80;35.30;14.50;98379.00;;;;5081139;28;1750;-89
2024/04/05 01:03:28;;;;;;;;;;;12.80;35.40;14.50;98386.00;;;;5071613;28;1728;-90
2024/04/05 01:05:57;;;;;;;;;;;12.80;35.50;14.50;98416.00;;;;5056574;28;1615;-89
2024/04/05 01:08:23;;;;;;;;;;;12.80;35.50;14.50;98344.00;;;;5057603;28;1995;-90
2024/04/05 01:10:50;;;;;;;;;;;12.80;35.30;14.50;98390.00;;;;5076639;28;1642;-89
2024/04/05 01:13:16;;;;;;;;;;;12.80;35.40;14.50;98311.00;;;;5058742;28;1592;-89
2024/04/05 01:15:43;;;;;;;;;;;12.80;35.30;14.40;98401.00;;;;5056437;28;1605;-89
2024/04/05 01:18:10;;;;;;;;;;;12.80;35.40;14.40;98327.00;;;;5056546;28;1636;-89
2024/04/05 01:20:37;;;;;;;;;;;12.80;35.40;14.40;98370.00;;;;5055836;28;1664;-89
2024/04/05 01:23:06;;;;;;;;;;;12.80;35.50;14.40;98403.00;;;;5056183;28;1645;-89
2024/04/05 01:25:34;;;;;;;;;;;12.80;35.50;14.40;98392.00;;;;5056614;28;1637;-89
2024/04/05 01:28:11;;;;;;;;;;;12.80;35.40;14.50;98349.00;;;;5055859;28;1526;-89
2024/04/05 01:30:38;;;;;;;;;;;12.70;35.40;14.40;98344.00;;;;5058983;28;1649;-89
2024/04/05 01:33:04;;;;;;;;;;;12.70;35.40;14.40;98344.00;;;;5076164;28;1524;-89
2024/04/05 01:35:31;;;;;;;;;;;12.70;35.40;14.40;98337.00;;;;5061489;28;1520;-89
2024/04/05 01:37:57;;;;;;;;;;;12.70;35.40;14.40;98347.00;;;;5055703;28;1665;-89
2024/04/05 01:40:24;;;;;;;;;;;12.70;35.30;14.40;98344.00;;;;5055598;28;1804;-89
2024/04/05 01:42:52;;;;;;;;;;;12.70;35.40;14.40;98303.00;;;;5056432;28;1771;-89
2024/04/05 01:45:19;;;;;;;;;;;12.70;35.40;14.40;98329.00;;;;5055398;28;1605;-89
2024/04/05 01:47:45;;;;;;;;;;;12.70;35.40;14.40;98329.00;;;;5055883;28;1427;-89
2024/04/05 01:50:13;;;;;;;;;;;12.70;35.40;14.40;98340.00;;;;5056481;28;1923;-89
2024/04/05 01:52:39;;;;;;;;;;;12.70;35.40;14.00;98284.00;;;;5059961;28;1575;-90
2024/04/05 01:55:08;;;;;;;;;;;12.70;35.30;14.40;98350.00;;;;5059935;28;1724;-89
2024/04/05 01:57:35;;;;;;;;;;;12.70;35.50;14.40;98339.00;;;;5059680;28;1701;-89
2024/04/05 02:00:05;;;;;;;;;;;12.70;35.40;14.40;98332.00;;;;5060034;28;1633;-90
2024/04/05 02:02:31;;;;;;;;;;;12.70;35.40;14.40;98384.00;;;;5059424;28;1566;-90
2024/04/05 02:04:58;;;;;;;;;;;12.70;35.30;14.40;98340.00;;;;5059670;28;1461;-90
2024/04/05 02:07:24;;;;;;;;;;;12.70;35.40;14.40;98340.00;;;;5059180;28;1637;-89
2024/04/05 02:09:52;;;;;;;;;;;12.70;35.40;14.40;98363.00;;;;5059306;28;1981;-89
2024/04/05 02:12:19;;;;;;;;;;;12.70;35.40;14.40;98296.00;;;;5059734;28;1787;-89
2024/04/05 02:14:47;;;;;;;;;;;12.70;35.40;14.40;98336.00;;;;5059791;28;1800;-89
2024/04/05 02:17:15;;;;;;;;;;;12.70;35.60;14.40;98270.00;;;;5059254;28;1622;-89
2024/04/05 02:19:42;;;;;;;;;;;12.70;35.50;14.40;98322.00;;;;5059165;28;1669;-89
2024/04/05 02:22:08;;;;;;;;;;;12.70;35.50;14.30;98344.00;;;;5055619;28;1748;-89
2024/04/05 02:24:36;;;;;;;;;;;12.70;35.40;14.30;98332.00;;;;5039648;28;1785;-89
2024/04/05 02:27:02;;;;;;;;;;;12.70;35.30;14.40;98343.00;;;;5039184;28;1776;-90
2024/04/05 02:29:30;;;;;;;;;;;12.70;35.40;14.40;98311.00;;;;5039221;28;1910;-90
2024/04/05 02:31:58;;;;;;;;;;;12.70;35.30;14.10;98284.00;;;;5039512;28;1670;-89
2024/04/05 02:34:27;;;;;;;;;;;12.70;35.40;14.40;98270.00;;;;5058667;28;1741;-89
2024/04/05 02:36:53;;;;;;;;;;;12.70;35.50;14.20;98261.00;;;;5058849;28;1461;-89
2024/04/05 02:39:20;;;;;;;;;;;12.70;35.40;14.40;98256.00;;;;5059220;28;1825;-89
2024/04/05 02:41:46;;;;;;;;;;;12.70;35.30;14.40;98285.00;;;;5059131;28;1493;-89
2024/04/05 02:44:13;;;;;;;;;;;12.70;35.30;14.40;98346.00;;;;5059029;28;1629;-89
2024/04/05 02:46:40;;;;;;;;;;;12.70;36.10;14.40;98279.00;;;;5060241;28;1538;-89
2024/04/05 02:49:07;;;;;;;;;;;12.70;35.40;14.40;98332.00;;;;5059194;28;1902;-89
2024/04/05 02:51:34;;;;;;;;;;;12.70;35.30;14.40;98306.00;;;;5058719;28;1777;-89
2024/04/05 02:54:02;;;;;;;;;;;12.70;35.40;14.40;98344.00;;;;5059158;28;1772;-89
2024/04/05 02:56:28;;;;;;;;;;;12.70;35.30;14.40;98375.00;;;;5064799;28;1526;-89
2024/04/05 02:58:56;;;;;;;;;;;12.70;35.90;14.40;98343.00;;;;5058686;28;1670;-89
2024/04/05 03:01:22;;;;;;;;;;;12.70;35.40;14.30;98369.00;;;;5074943;28;1418;-89
2024/04/05 03:03:50;;;;;;;;;;;12.70;35.30;14.30;98362.00;;;;5058693;28;1633;-89
2024/04/05 03:06:16;;;;;;;;;;;12.70;35.40;14.40;98288.00;;;;5058624;28;1621;-89
2024/04/05 03:08:45;;;;;;;;;;;12.70;35.40;14.40;98346.00;;;;5058761;28;1985;-89
2024/04/05 03:11:11;;;;;;;;;;;12.70;35.40;14.10;98363.00;;;;5058460;28;1667;-90
2024/04/05 03:13:38;;;;;;;;;;;12.70;35.40;14.40;98281.00;;;;5058613;28;1431;-89
2024/04/05 03:16:05;;;;;;;;;;;12.70;35.40;14.40;98345.00;;;;5065379;28;1633;-89
2024/04/05 03:18:32;;;;;;;;;;;12.70;35.40;14.30;98375.00;;;;5064917;28;1659;-89
2024/04/05 03:20:58;;;;;;;;;;;12.70;35.30;14.40;98319.00;;;;5058116;28;1669;-90
2024/04/05 03:23:25;;;;;;;;;;;12.60;35.30;14.40;98360.00;;;;5058303;28;1629;-89
2024/04/05 03:25:54;;;;;;;;;;;12.70;35.30;14.40;98394.00;;;;5049670;28;1553;-89
2024/04/05 03:28:21;;;;;;;;;;;12.70;35.50;14.40;98359.00;;;;5058195;28;1625;-89
2024/04/05 03:30:47;;;;;;;;;;;12.70;35.40;14.40;98314.00;;;;5057769;28;1906;-90
2024/04/05 03:33:14;;;;;;;;;;;12.70;35.30;14.40;98275.00;;;;5058235;28;1717;-90
2024/04/05 03:35:40;;;;;;;;;;;12.70;35.30;14.40;98325.00;;;;5057781;28;1665;-90
2024/04/05 03:38:07;;;;;;;;;;;12.60;35.30;14.20;98385.00;;;;5058053;28;1656;-89
2024/04/05 03:40:37;;;;;;;;;;;12.70;35.40;14.40;98361.00;;;;5058258;28;1656;-89
2024/04/05 03:43:06;;;;;;;;;;;12.70;35.40;14.30;98322.00;;;;5057916;28;1700;-90
2024/04/05 03:45:32;;;;;;;;;;;12.70;35.40;14.40;98331.00;;;;5070550;28;1584;-90
2024/04/05 03:48:00;;;;;;;;;;;12.60;35.30;14.30;98373.00;;;;5077628;28;1780;-90
2024/04/05 03:50:29;;;;;;;;;;;12.60;35.30;14.40;98302.00;;;;5077684;28;1914;-89
2024/04/05 03:52:56;;;;;;;;;;;12.60;35.30;14.40;98361.00;;;;5077449;28;1643;-90
2024/04/05 03:55:23;;;;;;;;;;;12.60;35.30;14.40;98299.00;;;;5058703;28;1802;-90
2024/04/05 03:57:52;;;;;;;;;;;12.70;35.30;14.40;98310.00;;;;5057641;28;1394;-89
2024/04/05 04:00:21;;;;;;;;;;;12.70;35.30;14.40;98338.00;;;;5057268;28;1697;-90
2024/04/05 04:02:51;;;;;;;;;;;12.60;35.30;14.40;98414.00;;;;5057522;28;1803;-90
2024/04/05 04:05:18;;;;;;;;;;;12.70;35.50;14.10;98393.00;;;;5057411;28;1666;-90
2024/04/05 04:07:45;;;;;;;;;;;12.70;35.30;14.40;98380.00;;;;5057336;28;1609;-89
2024/04/05 04:10:11;;;;;;;;;;;12.70;35.30;14.40;98314.00;;;;5057026;28;1995;-89
2024/04/05 04:12:53;;;;;;;;;;;12.70;35.30;14.30;98365.00;;;;5056680;28;1554;-90
2024/04/05 04:15:21;;;;;;;;;;;12.70;35.40;14.40;98327.00;;;;5057273;28;1556;-90
2024/04/05 04:17:48;;;;;;;;;;;12.60;35.30;14.10;98397.00;;;;5056841;28;1503;-90
2024/04/05 04:20:15;;;;;;;;;;;12.60;35.20;14.40;98327.00;;;;5056975;28;1542;-89
2024/04/05 04:22:42;;;;;;;;;;;12.70;35.40;14.40;98417.00;;;;5056885;28;1629;-90
2024/04/05 04:25:08;;;;;;;;;;;12.60;35.20;14.40;98326.00;;;;5064644;28;1759;-90
2024/04/05 04:27:36;;;;;;;;;;;12.70;35.30;14.40;98370.00;;;;5076925;28;1638;-90
2024/04/05 04:30:04;;;;;;;;;;;12.70;35.30;14.40;98410.00;;;;5076868;28;1905;-90
2024/04/05 04:32:33;;;;;;;;;;;12.70;35.30;14.30;98353.00;;;;5066355;28;1474;-90
2024/04/05 04:34:59;;;;;;;;;;;12.70;35.40;14.20;98385.00;;;;5056564;28;1738;-90
2024/04/05 04:37:26;;;;;;;;;;;12.70;35.30;14.40;98376.00;;;;5056932;28;1752;-89
2024/04/05 04:39:53;;;;;;;;;;;12.70;35.20;14.40;98370.00;;;;5056917;28;1652;-90
2024/04/05 04:42:20;;;;;;;;;;;12.70;35.20;14.30;98345.00;;;;5056932;28;1514;-90
2024/04/05 04:44:47;;;;;;;;;;;12.70;35.30;14.40;98291.00;;;;5056694;28;1524;-89
2024/04/05 04:47:14;;;;;;;;;;;12.70;35.40;14.40;98319.00;;;;5062214;28;1657;-90
2024/04/05 04:49:42;;;;;;;;;;;12.70;35.20;14.30;98368.00;;;;5056912;28;1988;-90
2024/04/05 04:52:10;;;;;;;;;;;12.70;35.40;14.20;98408.00;;;;5048653;28;1650;-90
2024/04/05 04:54:36;;;;;;;;;;;12.70;35.30;14.30;98408.00;;;;5038059;28;1695;-89
2024/04/05 04:57:03;;;;;;;;;;;12.70;35.20;14.30;98367.00;;;;5038395;28;1830;-90
2024/04/05 04:59:30;;;;;;;;;;;12.70;35.20;14.40;98381.00;;;;5056884;28;1558;-89
2024/04/05 05:01:57;;;;;;;;;;;12.70;35.20;14.40;98341.00;;;;5057046;28;1757;-90
2024/04/05 05:04:23;;;;;;;;;;;12.70;35.20;14.40;98318.00;;;;5056616;28;1586;-90
2024/04/05 05:06:52;;;;;;;;;;;12.70;35.30;14.10;98378.00;;;;5056496;28;1567;-90
2024/04/05 05:09:18;;;;;;;;;;;12.70;35.30;14.40;98366.00;;;;5056275;28;1990;-90
2024/04/05 05:11:46;;;;;;;;;;;12.70;35.20;14.40;98387.00;;;;5057718;28;1651;-90
2024/04/05 05:14:12;;;;;;;;;;;12.70;35.30;14.20;98356.00;;;;5066877;28;1443;-90
2024/04/05 05:16:40;;;;;;;;;;;12.70;35.20;14.40;98412.00;;;;5048550;28;1483;-90
2024/04/05 05:19:09;;;;;;;;;;;12.70;35.20;14.30;98411.00;;;;5056416;28;1740;-90
2024/04/05 05:21:36;;;;;;;;;;;12.70;35.30;14.40;98332.00;;;;5056802;28;1504;-90
2024/04/05 05:24:04;;;;;;;;;;;12.70;35.20;14.30;98423.00;;;;5057241;28;1638;-90
2024/04/05 05:26:31;;;;;;;;;;;12.70;35.30;14.40;98358.00;;;;5057133;28;1778;-91
2024/04/05 05:28:57;;;;;;;;;;;12.70;35.30;14.30;98349.00;;;;5057299;28;1560;-90
2024/04/05 05:31:25;;;;;;;;;;;12.70;35.30;14.30;98394.00;;;;5056388;28;1910;-90
2024/04/05 05:33:51;;;;;;;;;;;12.70;35.20;14.30;98378.00;;;;5056311;28;1673;-90
2024/04/05 05:36:18;;;;;;;;;;;12.70;35.20;14.30;98425.00;;;;5056867;28;1434;-90
2024/04/05 05:38:44;;;;;;;;;;;12.70;35.50;14.40;98384.00;;;;5056556;28;1862;-89
2024/04/05 05:41:13;;;;;;;;;;;12.70;35.20;14.40;98367.00;;;;5057366;28;1697;-90
2024/04/05 05:43:39;;;;;;;;;;;12.70;35.30;14.40;98377.00;;;;5059378;28;1447;-90
2024/04/05 05:46:07;;;;;;;;;;;12.70;35.10;14.10;98400.00;;;;5056255;28;1507;-90
2024/04/05 05:48:33;;;;;;;;;;;12.70;35.20;14.40;98431.00;;;;5055612;28;1534;-90
2024/04/05 05:51:00;;;;;;;;;;;12.60;35.20;14.30;98442.00;;;;5056685;28;1894;-90
2024/04/05 05:53:28;;;;;;;;;;;12.70;35.20;14.30;98419.00;;;;5056656;28;1454;-90
2024/04/05 05:55:55;;;;;;;;;;;12.70;35.20;14.40;98401.00;;;;5056169;28;1794;-90
2024/04/05 05:58:25;;;;;;;;;;;12.70;35.20;14.10;98412.00;;;;5056943;28;1424;-90
2024/04/05 06:01:06;;;;;;;;;;;12.70;35.30;14.30;98410.00;;;;5053014;28;1497;-90
2024/04/05 06:03:33;;;;;;;;;;;12.70;35.30;14.30;98347.00;;;;5048680;28;1813;-90
2024/04/05 06:06:02;;;;;;;;;;;12.70;35.30;14.20;98363.00;;;;5057461;28;1815;-90
2024/04/05 06:08:28;;;;;;;;;;;12.70;35.20;14.40;98378.00;;;;5057750;28;1701;-90
2024/04/05 06:10:56;;;;;;;;;;;12.70;35.30;14.30;98394.00;;;;5057948;28;1984;-90
2024/04/05 06:13:23;;;;;;;;;;;12.70;35.20;14.30;98416.00;;;;5058144;28;1454;-90
2024/04/05 06:15:57;;;;;;;;;;;12.70;35.30;14.30;98395.00;;;;5057971;28;1557;-90
2024/04/05 06:18:26;;;;;;;;;;;12.70;35.30;14.30;98436.00;;;;5046205;28;1478;-90
2024/04/05 06:20:52;;;;;;;;;;;12.70;35.30;14.30;98401.00;;;;5058545;28;1649;-89
2024/04/05 06:23:19;;;;;;;;;;;12.70;35.30;14.40;98430.00;;;;5058833;28;1781;-90
2024/04/05 06:25:53;;;;;;;;;;;12.70;35.20;14.40;98366.00;;;;5059136;28;1642;-90
2024/04/05 06:28:20;;;;;;;;;;;12.70;35.50;14.30;98425.00;;;;5059530;28;1665;-90
2024/04/05 06:30:46;;;;;;;;;;;12.70;35.20;14.40;98386.00;;;;5060631;28;1930;-90
2024/04/05 06:33:15;;;;;;;;;;;12.70;35.20;14.40;98371.00;;;;5060152;28;1695;-90
2024/04/05 06:35:43;;;;;;;;;;;12.70;35.30;14.20;98434.00;;;;5061227;28;1624;-90
2024/04/05 06:38:10;;;;;;;;;;;12.70;35.30;14.40;98387.00;;;;5070299;28;1738;-89
2024/04/05 06:40:36;;;;;;;;;;;12.70;35.10;14.30;98502.00;;;;5079998;28;1629;-90
2024/04/05 06:43:03;;;;;;;;;;;12.70;35.20;14.10;98380.00;;;;5061697;28;1554;-90
2024/04/05 06:45:29;;;;;;;;;;;12.70;35.20;14.40;98369.00;;;;5067607;28;1490;-90
2024/04/05 06:48:05;;;;;;;;;;;12.70;35.10;14.40;98432.00;;;;5058713;28;1593;-90
2024/04/05 06:50:42;;;;;;;;;;;12.70;35.20;14.40;98415.00;;;;5044827;28;1983;-89
2024/04/05 06:53:21;;;;;;;;;;;12.70;35.20;14.30;98410.00;;;;5066465;28;1639;-89
2024/04/05 06:55:51;;;;;;;;;;;12.70;35.30;14.40;98403.00;;;;5046552;28;1569;-89
2024/04/05 06:58:19;;;;;;;;;;;12.70;35.30;14.40;98418.00;;;;5058440;28;1415;-90
2024/04/05 07:00:45;;;;;;;;;;;12.70;35.20;14.40;98422.00;;;;5058491;28;1648;-90
2024/04/05 07:03:12;;;;;;;;;;;12.70;35.30;14.40;98384.00;;;;5066334;28;1806;-89
2024/04/05 07:05:39;;;;;;;;;;;12.70;35.20;14.40;98401.00;;;;5058563;28;1805;-90
2024/04/05 07:08:07;;;;;;;;;;;12.70;35.20;14.40;98460.00;;;;5058496;28;1581;-90
2024/04/05 07:10:37;;;;;;;;;;;12.70;35.30;14.40;98339.00;;;;5059314;28;1902;-90
2024/04/05 07:13:05;;;;;;;;;;;12.70;35.20;14.40;98397.00;;;;5058031;28;1774;-90
2024/04/05 07:15:31;;;;;;;;;;;12.70;35.20;14.40;98426.00;;;;5057895;28;1649;-90
2024/04/05 07:17:58;;;;;;;;;;;12.80;35.20;14.40;98432.00;;;;5066361;28;1618;-90
2024/04/05 07:20:24;;;;;;;;;;;12.80;35.10;14.50;98483.00;;;;5057488;28;1630;-90
2024/04/05 07:22:52;;;;;;;;;;;12.80;35.10;14.50;98446.00;;;;5057862;28;1618;-89
2024/04/05 07:25:20;;;;;;;;;;;12.90;35.10;14.50;98433.00;;;;5057362;28;1560;-89
2024/04/05 07:27:51;;;;;;;;;;;12.90;35.10;14.60;98410.00;;;;5057680;28;1621;-90
2024/04/05 07:30:18;;;;;;;;;;;12.90;34.90;14.60;98448.00;;;;5056840;28;1906;-90
2024/04/05 07:32:45;;;;;;;;;;;13.00;34.90;14.70;98361.00;;;;5050630;28;1658;-90
2024/04/05 07:35:11;;;;;;;;;;;13.10;34.80;14.60;98452.00;;;;5057364;28;1682;-88
2024/04/05 07:37:38;;;;;;;;;;;13.10;34.70;14.80;98408.00;;;;5056978;28;1638;-90
2024/04/05 07:40:06;;;;;;;;;;;13.20;34.60;14.90;98416.00;;;;5056221;28;1783;-89
2024/04/05 07:42:35;;;;;;;;;;;13.30;34.70;14.90;98476.00;;;;5064311;28;1824;-90
2024/04/05 07:45:03;;;;;;;;;;;13.40;34.70;15.10;98358.00;;;;5058971;28;1712;-89
2024/04/05 07:47:30;;;;;;;;;;;13.40;34.50;15.00;98443.00;;;;5056257;28;1771;-89
2024/04/05 07:49:56;;;;;;;;;;;13.50;34.50;15.20;98475.00;;;;5063114;28;1988;-90
2024/04/05 07:52:23;;;;;;;;;;;13.50;34.40;15.20;98446.00;;;;5057579;28;1697;-90
2024/04/05 07:54:49;;;;;;;;;;;13.60;34.30;15.10;98387.00;;;;5057353;28;1566;-90
2024/04/05 07:57:25;;;;;;;;;;;13.70;34.20;15.30;98434.00;;;;5052861;28;1750;-91
2024/04/05 07:59:52;;;;;;;;;;;13.70;34.30;15.40;98439.00;;;;5069730;28;1715;-89
2024/04/05 08:02:27;;;;;;;;;;;13.70;34.20;15.50;98442.00;;;;5056285;28;1852;-90
2024/04/05 08:04:55;;;;;;;;;;;13.80;34.20;15.50;98421.00;;;;5057216;28;1541;-90
2024/04/05 08:07:24;;;;;;;;;;;13.80;34.20;15.40;98487.00;;;;5056607;28;1755;-90
2024/04/05 08:09:51;;;;;;;;;;;13.90;34.10;15.60;98379.00;;;;5048806;28;1989;-91
2024/04/05 08:12:18;;;;;;;;;;;13.90;34.30;15.50;98461.00;;;;5056221;28;1645;-90
2024/04/05 08:14:44;;;;;;;;;;;13.90;34.10;15.40;98463.00;;;;5051776;28;1843;-89
2024/04/05 08:17:13;;;;;;;;;;;13.90;34.00;15.50;98444.00;;;;5048488;28;1546;-91
2024/04/05 08:19:40;;;;;;;;;;;13.90;34.00;15.70;98472.00;;;;5056906;28;1879;-90
2024/04/05 08:22:07;;;;;;;;;;;14.00;34.10;15.70;98443.00;;;;5056971;28;1771;-90
2024/04/05 08:25:01;;;;;;;;;;;14.00;34.00;15.70;98440.00;;;;5069127;27;1444;-39
2024/04/05 08:27:28;;;;;;;;;;;14.00;34.00;15.70;98422.00;;;;5043058;28;1892;-40
2024/04/05 08:29:55;;;;;;;;;;;14.00;34.00;15.70;98423.00;;;;5047688;28;1626;-39
2024/04/05 08:32:22;;;;;;;;;;;14.00;34.00;15.70;98429.00;;;;5046848;28;1748;-39
2024/04/05 08:34:49;;;;;;;;;;;14.00;34.10;15.70;98429.00;;;;5047994;28;1958;-40
2024/04/05 08:37:15;;;;;;;;;;;14.00;34.10;15.70;98422.00;;;;5048488;28;1697;-44
2024/04/05 08:39:44;;;;;;;;;;;14.00;34.10;15.70;98420.00;;;;5048161;28;2366;-39
2024/04/05 08:42:15;;;;;;;;;;;14.00;34.10;15.70;98423.00;;;;5048895;28;1681;-41
2024/04/05 08:44:44;;;;;;;;;;;14.00;34.20;15.70;98429.00;;;;5049932;28;1902;-41
2024/04/05 08:47:10;;;;;;;;;;;14.00;34.10;15.70;98425.00;;;;5050197;28;1922;-43
2024/04/05 08:49:37;;;;;;;;;;;14.00;34.20;15.70;98420.00;;;;5044094;28;2003;-40
2024/04/05 08:52:03;;;;;;;;;;;14.00;34.20;15.80;98421.00;;;;5048399;28;1789;-40
2024/04/05 08:54:31;;;;;;;;;;;14.00;34.20;15.80;98419.00;;;;5048926;28;1647;-40
2024/04/05 08:56:58;;;;;;;;;;;14.00;34.10;15.80;98421.00;;;;5047335;28;1695;-38
2024/04/05 08:59:28;;;;;;;;;;;14.10;34.20;15.80;98415.00;;;;5043520;28;1688;-40
2024/04/05 09:01:57;;;;;;;;;;;14.10;34.20;15.80;98429.00;;;;5047249;28;1685;-39
2024/04/05 09:04:24;;;;;;;;;;;14.10;34.10;15.90;98428.00;;;;5052010;28;1906;-41
2024/04/05 09:06:51;;;;;;;;;;;14.20;34.10;15.90;98420.00;;;;5047647;28;1697;-38
2024/04/05 09:09:25;;;;;;;;;;;14.20;34.00;16.00;98416.00;;;;5048733;28;1661;-41
2024/04/05 09:11:59;;;;;;;;;;;14.20;34.00;16.00;98421.00;;;;5043163;28;1670;-39
2024/04/05 09:14:27;;;;;;;;;;;14.20;34.00;16.00;98427.00;;;;5045365;28;1798;-40
2024/04/05 09:16:53;;;;;;;;;;;14.30;34.00;16.00;98428.00;;;;5046412;28;1707;-40
2024/04/05 09:19:22;;;;;;;;;;;14.30;34.00;16.00;98413.00;;;;5048126;28;1781;-40
2024/04/05 09:21:48;;;;;;;;;;;14.30;34.00;16.00;98419.00;;;;5049142;28;1840;-42
2024/04/05 09:24:16;;;;;;;;;;;14.30;34.00;16.00;98420.00;;;;5048833;28;1989;-39
2024/04/05 09:26:43;;;;;;;;;;;14.30;34.00;16.00;98422.00;;;;5046230;28;1796;-39
2024/04/05 09:29:12;;;;;;;;;;;14.30;33.90;16.10;98414.00;;;;5047263;28;2030;-41
2024/04/05 09:31:40;;;;;;;;;;;14.30;33.90;16.10;98416.00;;;;5045731;28;2173;-40
2024/04/05 09:34:08;;;;;;;;;;;14.40;34.00;16.10;98409.00;;;;5049154;28;1737;-38
2024/04/05 09:36:35;;;;;;;;;;;14.40;34.00;16.10;98394.00;;;;5032741;28;1846;-40
2024/04/05 09:39:03;;;;;;;;;;;14.40;34.00;16.10;98386.00;;;;5035387;28;1671;-38
2024/04/05 09:41:30;;;;;;;;;;;14.40;34.10;16.10;98386.00;;;;5029051;28;2643;-40
2024/04/05 09:43:59;;;;;;;;;;;14.40;34.70;16.20;98406.00;;;;5033856;28;1980;-38
2024/04/05 09:46:26;;;;;;;;;;;14.40;34.10;16.20;98400.00;;;;5034515;28;2261;-39
2024/04/05 09:48:54;;;;;;;;;;;14.30;34.00;16.20;98376.00;;;;5033334;28;1849;-38
2024/04/05 09:51:24;;;;;;;;;;;14.40;34.20;16.20;98381.00;;;;5027519;28;2575;-40
2024/04/05 09:53:50;;;;;;;;;;;14.40;34.20;16.20;98362.00;;;;5033672;28;1829;-38
2024/04/05 09:56:18;;;;;;;;;;;14.40;34.20;16.20;98368.00;;;;5034128;28;1894;-43
2024/04/05 09:58:46;;;;;;;;;;;14.40;34.20;16.20;98370.00;;;;5032043;28;1737;-39
2024/04/05 10:01:14;;;;;;;;;;;14.40;34.20;16.20;98356.00;;;;5030436;28;1655;-40
2024/04/05 10:03:41;;;;;;;;;;;14.40;34.20;16.20;98384.00;;;;5033774;28;1981;-38
2024/04/05 10:06:13;;;;;;;;;;;14.40;34.20;16.20;98379.00;;;;5035045;28;1933;-39
2024/04/05 10:08:39;;;;;;;;;;;14.40;34.20;16.20;98373.00;;;;5031704;28;1663;-40
2024/04/05 10:11:13;;;;;;;;;;;14.40;34.30;16.20;98376.00;;;;5034934;28;1661;-39
2024/04/05 10:13:39;;;;;;;;;;;14.40;34.30;16.20;98367.00;;;;5033314;28;1742;-40
2024/04/05 10:16:07;;;;;;;;;;;14.40;34.20;16.20;98363.00;;;;5033136;28;1657;-40
2024/04/05 10:18:34;;;;;;;;;;;14.40;34.20;16.20;98360.00;;;;5032330;28;1696;-38
2024/04/05 10:21:02;;;;;;;;;;;14.40;34.20;16.20;98360.00;;;;5034482;28;1738;-39
2024/04/05 10:23:30;;;;;;;;;;;14.50;34.20;16.20;98354.00;;;;5032511;28;1914;-40
2024/04/05 10:25:57;;;;;;;;;;;14.50;34.10;16.20;98365.00;;;;5033304;28;1822;-38
2024/04/05 10:28:24;;;;;;;;;;;14.50;34.00;16.20;98377.00;;;;5033152;28;1782;-43
2024/04/05 10:30:51;;;;;;;;;;;14.50;34.00;16.20;98372.00;;;;5029792;28;1796;-39
2024/04/05 10:33:17;;;;;;;;;;;14.50;34.00;16.20;98359.00;;;;5025617;28;1662;-39
2024/04/05 10:35:45;;;;;;;;;;;14.50;34.00;16.20;98342.00;;;;5030095;28;1602;-40
2024/04/05 10:38:11;;;;;;;;;;;14.60;34.10;16.30;98350.00;;;;5033266;28;1904;-43
2024/04/05 10:40:40;;;;;;;;;;;14.50;34.00;16.30;98349.00;;;;5033387;28;1642;-39
2024/04/05 10:43:07;;;;;;;;;;;14.50;34.00;16.30;98352.00;;;;5033616;28;1955;-40
2024/04/05 10:45:34;;;;;;;;;;;14.50;34.00;16.30;98352.00;;;;5033229;28;1638;-39
2024/04/05 10:48:00;;;;;;;;;;;14.50;34.00;16.30;98336.00;;;;5031854;28;1618;-39
2024/04/05 10:50:28;;;;;;;;;;;14.50;34.00;16.30;98335.00;;;;5033442;28;1604;-39
2024/04/05 10:52:54;;;;;;;;;;;14.50;34.10;16.30;98327.00;;;;5032468;28;1669;-41
2024/04/05 10:55:21;;;;;;;;;;;14.60;34.10;16.30;98329.00;;;;5028377;28;1662;-39
2024/04/05 10:57:48;;;;;;;;;;;14.50;34.10;16.30;98319.00;;;;5026336;28;1697;-40
2024/04/05 11:00:17;;;;;;;;;;;14.50;34.10;16.30;98302.00;;;;5034188;28;1534;-39
2024/04/05 11:02:43;;;;;;;;;;;14.50;34.10;16.40;98288.00;;;;5028720;28;1607;-39
2024/04/05 11:05:13;;;;;;;;;;;14.50;34.10;16.40;98266.00;;;;5027837;28;1992;-38
2024/04/05 11:07:40;;;;;;;;;;;14.50;34.10;16.40;98255.00;;;;5033060;28;1689;-40
2024/04/05 11:10:17;;;;;;;;;;;14.50;34.10;16.40;98253.00;;;;5033820;28;1828;-42
2024/04/05 11:12:44;;;;;;;;;;;14.50;34.10;16.40;98237.00;;;;5029356;28;1873;-39
2024/04/05 11:15:12;;;;;;;;;;;14.50;34.20;16.40;98239.00;;;;5035079;28;1652;-41
2024/04/05 11:17:39;;;;;;;;;;;14.50;34.30;16.40;98238.00;;;;5031963;28;1678;-40
2024/04/05 11:20:09;;;;;;;;;;;14.50;34.20;16.40;98254.00;;;;5033131;28;1677;-40
2024/04/05 11:22:35;;;;;;;;;;;14.50;34.20;16.40;98258.00;;;;5028648;28;1358;-38
2024/04/05 11:25:02;;;;;;;;;;;14.50;34.20;16.30;98244.00;;;;5035655;28;2546;-40
2024/04/05 11:27:29;;;;;;;;;;;14.50;34.20;16.40;98243.00;;;;5034688;28;1937;-39
2024/04/05 11:29:56;;;;;;;;;;;14.50;34.20;16.40;98244.00;;;;5033725;28;1653;-41
2024/04/05 11:32:28;;;;;;;;;;;14.50;34.20;16.40;98237.00;;;;5032288;28;1931;-39
2024/04/05 11:34:56;;;;;;;;;;;14.50;34.20;16.40;98223.00;;;;5023408;28;1685;-38
2024/04/05 11:37:23;;;;;;;;;;;14.50;34.20;16.40;98222.00;;;;5033156;28;1698;-41
2024/04/05 11:39:50;;;;;;;;;;;14.50;34.20;16.40;98223.00;;;;5035721;28;1518;-39
2024/04/05 11:42:16;;;;;;;;;;;14.60;34.30;16.40;98218.00;;;;5035751;28;1719;-38
2024/04/05 11:44:44;;;;;;;;;;;14.50;34.20;16.40;98222.00;;;;5033589;28;1958;-39
2024/04/05 11:47:11;;;;;;;;;;;14.60;34.30;16.50;98230.00;;;;5037546;28;2724;-42
2024/04/05 11:49:40;;;;;;;;;;;14.60;34.30;16.50;98227.00;;;;5034859;28;1341;-38
2024/04/05 11:52:07;;;;;;;;;;;14.60;34.30;16.50;98225.00;;;;5036156;28;1939;-38
2024/04/05 11:54:34;;;;;;;;;;;14.60;34.30;16.50;98219.00;;;;5033717;28;1668;-41
2024/04/05 11:57:00;;;;;;;;;;;14.60;34.30;16.40;98208.00;;;;5034002;28;1677;-39
2024/04/05 11:59:27;;;;;;;;;;;14.60;34.30;16.50;98204.00;;;;5032692;28;1488;-39
2024/04/05 12:01:53;;;;;;;;;;;14.60;34.30;16.50;98192.00;;;;5034996;28;1762;-39
2024/04/05 12:04:21;;;;;;;;;;;14.60;34.30;16.50;98210.00;;;;5036254;28;1977;-39
2024/04/05 12:06:50;;;;;;;;;;;14.60;34.30;16.50;98198.00;;;;5028018;28;1593;-39
2024/04/05 12:09:17;;;;;;;;;;;14.60;34.30;16.50;98211.00;;;;5036388;28;1798;-39
2024/04/05 12:11:44;;;;;;;;;;;14.60;34.40;16.50;98201.00;;;;5031661;28;1605;-41